sensor_id;sensor_type;location;lat;lon;timestamp;P1;durP1;ratioP1;P2;durP2;ratioP2
59458;SDS011;45269;43.568;22.244;2022-10-16T00:00:39;33.97;;;23.30;;
59458;SDS011;45269;43.568;22.244;2022-10-16T00:03:04;26.27;;;19.50;;
59458;SDS011;45269;43.568;22.244;2022-10-16T00:05:30;26.05;;;18.02;;
59458;SDS011;45269;43.568;22.244;2022-10-16T00:07:55;31.85;;;23.17;;
59458;SDS011;45269;43.568;22.244;2022-10-16T00:10:21;54.22;;;37.10;;
59458;SDS011;45269;43.568;22.244;2022-10-16T00:12:46;53.40;;;40.40;;
59458;SDS011;45269;43.568;22.244;2022-10-16T00:15:12;57.47;;;41.58;;
59458;SDS011;45269;43.568;22.244;2022-10-16T00:17:37;62.53;;;43.40;;
59458;SDS011;45269;43.568;22.244;2022-10-16T00:20:03;66.45;;;45.50;;
59458;SDS011;45269;43.568;22.244;2022-10-16T00:22:28;49.83;;;35.33;;
59458;SDS011;45269;43.568;22.244;2022-10-16T00:24:53;35.90;;;24.15;;
59458;SDS011;45269;43.568;22.244;2022-10-16T00:27:19;26.25;;;19.70;;
59458;SDS011;45269;43.568;22.244;2022-10-16T00:29:44;27.33;;;19.17;;
59458;SDS011;45269;43.568;22.244;2022-10-16T00:32:10;27.92;;;20.13;;
59458;SDS011;45269;43.568;22.244;2022-10-16T00:34:35;20.60;;;18.15;;
59458;SDS011;45269;43.568;22.244;2022-10-16T00:37:00;20.13;;;16.23;;
59458;SDS011;45269;43.568;22.244;2022-10-16T00:39:26;22.38;;;15.85;;
59458;SDS011;45269;43.568;22.244;2022-10-16T00:41:51;14.05;;;10.52;;
59458;SDS011;45269;43.568;22.244;2022-10-16T00:47:01;16.02;;;12.57;;
59458;SDS011;45269;43.568;22.244;2022-10-16T00:49:26;17.13;;;14.20;;
59458;SDS011;45269;43.568;22.244;2022-10-16T00:51:52;25.45;;;18.08;;
59458;SDS011;45269;43.568;22.244;2022-10-16T00:54:23;26.23;;;19.55;;
59458;SDS011;45269;43.568;22.244;2022-10-16T00:56:49;24.13;;;19.88;;
59458;SDS011;45269;43.568;22.244;2022-10-16T01:01:46;25.55;;;20.55;;
59458;SDS011;45269;43.568;22.244;2022-10-16T01:04:11;40.38;;;31.38;;
59458;SDS011;45269;43.568;22.244;2022-10-16T01:09:20;49.72;;;36.90;;
59458;SDS011;45269;43.568;22.244;2022-10-16T01:11:52;30.80;;;23.45;;
59458;SDS011;45269;43.568;22.244;2022-10-16T01:17:04;24.75;;;17.30;;
59458;SDS011;45269;43.568;22.244;2022-10-16T01:22:09;17.70;;;13.00;;
59458;SDS011;45269;43.568;22.244;2022-10-16T01:24:39;18.73;;;14.18;;
59458;SDS011;45269;43.568;22.244;2022-10-16T01:29:56;15.65;;;11.77;;
59458;SDS011;45269;43.568;22.244;2022-10-16T01:32:39;18.17;;;12.95;;
59458;SDS011;45269;43.568;22.244;2022-10-16T01:35:13;13.93;;;9.68;;
59458;SDS011;45269;43.568;22.244;2022-10-16T01:37:41;15.38;;;9.18;;
59458;SDS011;45269;43.568;22.244;2022-10-16T01:40:10;12.15;;;8.85;;
59458;SDS011;45269;43.568;22.244;2022-10-16T01:42:37;12.90;;;9.25;;
59458;SDS011;45269;43.568;22.244;2022-10-16T01:45:05;12.47;;;9.27;;
59458;SDS011;45269;43.568;22.244;2022-10-16T01:47:32;13.43;;;9.95;;
59458;SDS011;45269;43.568;22.244;2022-10-16T01:49:58;14.93;;;11.02;;
59458;SDS011;45269;43.568;22.244;2022-10-16T01:52:25;15.82;;;11.75;;
59458;SDS011;45269;43.568;22.244;2022-10-16T01:54:52;18.30;;;12.52;;
59458;SDS011;45269;43.568;22.244;2022-10-16T01:57:18;21.98;;;15.27;;
59458;SDS011;45269;43.568;22.244;2022-10-16T01:59:47;26.35;;;18.15;;
59458;SDS011;45269;43.568;22.244;2022-10-16T02:02:12;26.58;;;18.83;;
59458;SDS011;45269;43.568;22.244;2022-10-16T02:04:50;21.90;;;17.40;;
59458;SDS011;45269;43.568;22.244;2022-10-16T02:07:18;32.22;;;22.90;;
59458;SDS011;45269;43.568;22.244;2022-10-16T02:09:43;37.40;;;25.55;;
59458;SDS011;45269;43.568;22.244;2022-10-16T02:12:16;32.70;;;23.42;;
59458;SDS011;45269;43.568;22.244;2022-10-16T02:14:44;29.13;;;20.48;;
59458;SDS011;45269;43.568;22.244;2022-10-16T02:17:13;22.98;;;16.27;;
59458;SDS011;45269;43.568;22.244;2022-10-16T02:19:38;23.73;;;18.40;;
59458;SDS011;45269;43.568;22.244;2022-10-16T02:22:04;20.90;;;15.40;;
59458;SDS011;45269;43.568;22.244;2022-10-16T02:29:27;30.38;;;23.00;;
59458;SDS011;45269;43.568;22.244;2022-10-16T02:31:57;31.80;;;22.30;;
59458;SDS011;45269;43.568;22.244;2022-10-16T02:34:24;41.30;;;27.60;;
59458;SDS011;45269;43.568;22.244;2022-10-16T02:36:51;72.95;;;44.25;;
59458;SDS011;45269;43.568;22.244;2022-10-16T02:39:17;60.92;;;36.72;;
59458;SDS011;45269;43.568;22.244;2022-10-16T02:41:43;43.78;;;25.13;;
59458;SDS011;45269;43.568;22.244;2022-10-16T02:44:08;37.17;;;20.85;;
59458;SDS011;45269;43.568;22.244;2022-10-16T02:46:34;24.23;;;16.70;;
59458;SDS011;45269;43.568;22.244;2022-10-16T02:48:59;18.90;;;12.93;;
59458;SDS011;45269;43.568;22.244;2022-10-16T02:51:24;17.80;;;11.73;;
59458;SDS011;45269;43.568;22.244;2022-10-16T02:53:50;13.20;;;10.07;;
59458;SDS011;45269;43.568;22.244;2022-10-16T02:56:15;11.65;;;8.95;;
59458;SDS011;45269;43.568;22.244;2022-10-16T02:58:40;16.27;;;10.35;;
59458;SDS011;45269;43.568;22.244;2022-10-16T03:01:06;16.23;;;10.23;;
59458;SDS011;45269;43.568;22.244;2022-10-16T03:03:31;14.52;;;11.48;;
59458;SDS011;45269;43.568;22.244;2022-10-16T03:05:56;15.90;;;11.27;;
59458;SDS011;45269;43.568;22.244;2022-10-16T03:08:22;15.07;;;12.45;;
59458;SDS011;45269;43.568;22.244;2022-10-16T03:10:50;14.25;;;11.40;;
59458;SDS011;45269;43.568;22.244;2022-10-16T03:13:15;17.33;;;11.93;;
59458;SDS011;45269;43.568;22.244;2022-10-16T03:15:40;26.25;;;15.52;;
59458;SDS011;45269;43.568;22.244;2022-10-16T03:18:06;22.63;;;15.57;;
59458;SDS011;45269;43.568;22.244;2022-10-16T03:20:31;24.52;;;15.82;;
59458;SDS011;45269;43.568;22.244;2022-10-16T03:22:56;24.58;;;15.70;;
59458;SDS011;45269;43.568;22.244;2022-10-16T03:25:22;23.90;;;17.27;;
59458;SDS011;45269;43.568;22.244;2022-10-16T03:27:47;25.73;;;18.63;;
59458;SDS011;45269;43.568;22.244;2022-10-16T03:30:13;45.85;;;29.60;;
59458;SDS011;45269;43.568;22.244;2022-10-16T03:32:38;64.90;;;41.15;;
59458;SDS011;45269;43.568;22.244;2022-10-16T03:35:03;89.95;;;52.05;;
59458;SDS011;45269;43.568;22.244;2022-10-16T03:37:29;93.32;;;57.13;;
59458;SDS011;45269;43.568;22.244;2022-10-16T03:39:54;63.75;;;38.75;;
59458;SDS011;45269;43.568;22.244;2022-10-16T03:42:20;33.58;;;22.30;;
59458;SDS011;45269;43.568;22.244;2022-10-16T03:44:45;23.98;;;16.13;;
59458;SDS011;45269;43.568;22.244;2022-10-16T03:47:10;40.50;;;27.65;;
59458;SDS011;45269;43.568;22.244;2022-10-16T03:49:36;50.83;;;32.53;;
59458;SDS011;45269;43.568;22.244;2022-10-16T03:52:01;46.70;;;28.00;;
59458;SDS011;45269;43.568;22.244;2022-10-16T03:54:26;26.00;;;16.92;;
59458;SDS011;45269;43.568;22.244;2022-10-16T03:56:52;26.20;;;18.40;;
59458;SDS011;45269;43.568;22.244;2022-10-16T03:59:17;27.25;;;18.90;;
59458;SDS011;45269;43.568;22.244;2022-10-16T04:01:43;29.85;;;20.55;;
59458;SDS011;45269;43.568;22.244;2022-10-16T04:04:08;27.33;;;19.38;;
59458;SDS011;45269;43.568;22.244;2022-10-16T04:06:33;20.20;;;14.35;;
59458;SDS011;45269;43.568;22.244;2022-10-16T04:08:59;16.30;;;12.55;;
59458;SDS011;45269;43.568;22.244;2022-10-16T04:11:24;15.52;;;12.40;;
59458;SDS011;45269;43.568;22.244;2022-10-16T04:13:49;15.32;;;10.82;;
59458;SDS011;45269;43.568;22.244;2022-10-16T04:16:15;12.15;;;9.23;;
59458;SDS011;45269;43.568;22.244;2022-10-16T04:18:40;14.57;;;9.48;;
59458;SDS011;45269;43.568;22.244;2022-10-16T04:21:06;13.30;;;10.65;;
59458;SDS011;45269;43.568;22.244;2022-10-16T04:23:31;19.40;;;13.82;;
59458;SDS011;45269;43.568;22.244;2022-10-16T04:25:57;31.55;;;21.95;;
59458;SDS011;45269;43.568;22.244;2022-10-16T04:28:22;33.08;;;22.38;;
59458;SDS011;45269;43.568;22.244;2022-10-16T04:30:48;30.58;;;23.33;;
59458;SDS011;45269;43.568;22.244;2022-10-16T04:33:13;33.90;;;22.48;;
59458;SDS011;45269;43.568;22.244;2022-10-16T04:35:39;36.83;;;24.25;;
59458;SDS011;45269;43.568;22.244;2022-10-16T04:38:04;69.18;;;39.47;;
59458;SDS011;45269;43.568;22.244;2022-10-16T04:40:29;71.35;;;44.08;;
59458;SDS011;45269;43.568;22.244;2022-10-16T04:42:58;65.72;;;42.30;;
59458;SDS011;45269;43.568;22.244;2022-10-16T04:45:23;60.55;;;39.72;;
59458;SDS011;45269;43.568;22.244;2022-10-16T04:47:49;47.35;;;31.17;;
59458;SDS011;45269;43.568;22.244;2022-10-16T04:50:14;70.15;;;42.05;;
59458;SDS011;45269;43.568;22.244;2022-10-16T04:52:39;65.22;;;41.95;;
59458;SDS011;45269;43.568;22.244;2022-10-16T04:55:05;56.20;;;33.75;;
59458;SDS011;45269;43.568;22.244;2022-10-16T04:57:30;46.15;;;30.67;;
59458;SDS011;45269;43.568;22.244;2022-10-16T04:59:56;38.42;;;24.33;;
59458;SDS011;45269;43.568;22.244;2022-10-16T05:02:21;31.48;;;22.45;;
59458;SDS011;45269;43.568;22.244;2022-10-16T05:04:47;49.67;;;37.88;;
59458;SDS011;45269;43.568;22.244;2022-10-16T05:07:12;104.30;;;71.18;;
59458;SDS011;45269;43.568;22.244;2022-10-16T05:09:37;89.57;;;67.10;;
59458;SDS011;45269;43.568;22.244;2022-10-16T05:12:03;109.05;;;81.85;;
59458;SDS011;45269;43.568;22.244;2022-10-16T05:14:29;138.48;;;103.68;;
59458;SDS011;45269;43.568;22.244;2022-10-16T05:16:54;145.38;;;102.05;;
59458;SDS011;45269;43.568;22.244;2022-10-16T05:19:19;106.53;;;77.78;;
59458;SDS011;45269;43.568;22.244;2022-10-16T05:21:45;95.70;;;66.97;;
59458;SDS011;45269;43.568;22.244;2022-10-16T05:24:10;85.22;;;62.47;;
59458;SDS011;45269;43.568;22.244;2022-10-16T05:26:35;50.92;;;38.08;;
59458;SDS011;45269;43.568;22.244;2022-10-16T05:29:01;35.22;;;24.38;;
59458;SDS011;45269;43.568;22.244;2022-10-16T05:31:26;23.95;;;15.48;;
59458;SDS011;45269;43.568;22.244;2022-10-16T05:33:51;30.73;;;17.75;;
59458;SDS011;45269;43.568;22.244;2022-10-16T05:36:17;32.00;;;21.48;;
59458;SDS011;45269;43.568;22.244;2022-10-16T05:38:43;28.27;;;19.73;;
59458;SDS011;45269;43.568;22.244;2022-10-16T05:41:08;22.67;;;18.20;;
59458;SDS011;45269;43.568;22.244;2022-10-16T05:43:34;25.58;;;19.30;;
59458;SDS011;45269;43.568;22.244;2022-10-16T05:46:00;24.67;;;18.42;;
59458;SDS011;45269;43.568;22.244;2022-10-16T05:48:26;28.25;;;17.88;;
59458;SDS011;45269;43.568;22.244;2022-10-16T05:50:58;24.55;;;18.83;;
59458;SDS011;45269;43.568;22.244;2022-10-16T05:53:24;24.50;;;16.65;;
59458;SDS011;45269;43.568;22.244;2022-10-16T05:55:55;19.63;;;12.88;;
59458;SDS011;45269;43.568;22.244;2022-10-16T05:58:21;19.77;;;16.75;;
59458;SDS011;45269;43.568;22.244;2022-10-16T06:00:57;29.15;;;21.30;;
59458;SDS011;45269;43.568;22.244;2022-10-16T06:03:22;30.88;;;20.75;;
59458;SDS011;45269;43.568;22.244;2022-10-16T06:05:48;82.50;;;64.57;;
59458;SDS011;45269;43.568;22.244;2022-10-16T06:08:13;33.95;;;26.75;;
59458;SDS011;45269;43.568;22.244;2022-10-16T06:10:38;31.23;;;25.80;;
59458;SDS011;45269;43.568;22.244;2022-10-16T06:13:04;35.78;;;27.55;;
59458;SDS011;45269;43.568;22.244;2022-10-16T06:15:29;44.05;;;34.15;;
59458;SDS011;45269;43.568;22.244;2022-10-16T06:17:54;46.42;;;37.58;;
59458;SDS011;45269;43.568;22.244;2022-10-16T06:20:20;88.25;;;70.47;;
59458;SDS011;45269;43.568;22.244;2022-10-16T06:22:45;78.15;;;67.13;;
59458;SDS011;45269;43.568;22.244;2022-10-16T06:25:10;83.45;;;70.55;;
59458;SDS011;45269;43.568;22.244;2022-10-16T06:27:36;122.65;;;98.80;;
59458;SDS011;45269;43.568;22.244;2022-10-16T06:30:04;121.95;;;98.68;;
59458;SDS011;45269;43.568;22.244;2022-10-16T06:32:29;63.35;;;51.10;;
59458;SDS011;45269;43.568;22.244;2022-10-16T06:34:55;46.22;;;40.65;;
59458;SDS011;45269;43.568;22.244;2022-10-16T06:37:20;39.58;;;35.08;;
59458;SDS011;45269;43.568;22.244;2022-10-16T06:39:47;41.05;;;35.50;;
59458;SDS011;45269;43.568;22.244;2022-10-16T06:42:12;37.40;;;31.77;;
59458;SDS011;45269;43.568;22.244;2022-10-16T06:44:37;32.22;;;28.73;;
59458;SDS011;45269;43.568;22.244;2022-10-16T06:47:03;27.17;;;23.73;;
59458;SDS011;45269;43.568;22.244;2022-10-16T06:49:28;29.42;;;23.40;;
59458;SDS011;45269;43.568;22.244;2022-10-16T06:51:54;121.15;;;80.20;;
59458;SDS011;45269;43.568;22.244;2022-10-16T06:54:19;94.32;;;65.35;;
59458;SDS011;45269;43.568;22.244;2022-10-16T06:56:44;46.63;;;37.90;;
59458;SDS011;45269;43.568;22.244;2022-10-16T06:59:10;45.67;;;38.33;;
59458;SDS011;45269;43.568;22.244;2022-10-16T07:01:35;42.28;;;35.92;;
59458;SDS011;45269;43.568;22.244;2022-10-16T07:04:01;43.70;;;37.03;;
59458;SDS011;45269;43.568;22.244;2022-10-16T07:06:27;33.47;;;28.23;;
59458;SDS011;45269;43.568;22.244;2022-10-16T07:08:55;46.78;;;39.85;;
59458;SDS011;45269;43.568;22.244;2022-10-16T07:11:21;35.47;;;25.90;;
59458;SDS011;45269;43.568;22.244;2022-10-16T07:13:47;40.20;;;35.80;;
59458;SDS011;45269;43.568;22.244;2022-10-16T07:16:14;29.98;;;24.88;;
59458;SDS011;45269;43.568;22.244;2022-10-16T07:18:40;23.95;;;19.90;;
59458;SDS011;45269;43.568;22.244;2022-10-16T07:21:07;22.65;;;19.27;;
59458;SDS011;45269;43.568;22.244;2022-10-16T07:23:33;22.65;;;19.73;;
59458;SDS011;45269;43.568;22.244;2022-10-16T07:25:59;24.88;;;22.02;;
59458;SDS011;45269;43.568;22.244;2022-10-16T07:28:24;22.50;;;17.63;;
59458;SDS011;45269;43.568;22.244;2022-10-16T07:30:50;17.05;;;15.05;;
59458;SDS011;45269;43.568;22.244;2022-10-16T07:33:15;28.38;;;23.35;;
59458;SDS011;45269;43.568;22.244;2022-10-16T07:35:50;18.83;;;16.35;;
59458;SDS011;45269;43.568;22.244;2022-10-16T07:38:16;26.38;;;23.33;;
59458;SDS011;45269;43.568;22.244;2022-10-16T07:40:41;29.15;;;23.42;;
59458;SDS011;45269;43.568;22.244;2022-10-16T07:43:07;28.67;;;22.48;;
59458;SDS011;45269;43.568;22.244;2022-10-16T07:45:32;27.27;;;22.85;;
59458;SDS011;45269;43.568;22.244;2022-10-16T07:47:57;26.90;;;22.90;;
59458;SDS011;45269;43.568;22.244;2022-10-16T07:50:23;23.08;;;20.48;;
59458;SDS011;45269;43.568;22.244;2022-10-16T07:52:48;25.35;;;19.67;;
59458;SDS011;45269;43.568;22.244;2022-10-16T07:55:13;30.52;;;25.30;;
59458;SDS011;45269;43.568;22.244;2022-10-16T07:57:39;28.65;;;22.02;;
59458;SDS011;45269;43.568;22.244;2022-10-16T08:00:04;21.85;;;18.40;;
59458;SDS011;45269;43.568;22.244;2022-10-16T08:02:30;26.65;;;22.98;;
59458;SDS011;45269;43.568;22.244;2022-10-16T08:04:56;21.45;;;15.65;;
59458;SDS011;45269;43.568;22.244;2022-10-16T08:07:21;37.63;;;33.67;;
59458;SDS011;45269;43.568;22.244;2022-10-16T08:09:48;27.17;;;24.05;;
59458;SDS011;45269;43.568;22.244;2022-10-16T08:12:14;20.20;;;17.55;;
59458;SDS011;45269;43.568;22.244;2022-10-16T08:14:39;30.83;;;23.58;;
59458;SDS011;45269;43.568;22.244;2022-10-16T08:17:05;23.02;;;15.55;;
59458;SDS011;45269;43.568;22.244;2022-10-16T08:19:30;16.58;;;14.80;;
59458;SDS011;45269;43.568;22.244;2022-10-16T08:21:59;19.63;;;13.57;;
59458;SDS011;45269;43.568;22.244;2022-10-16T08:24:24;28.88;;;22.05;;
59458;SDS011;45269;43.568;22.244;2022-10-16T08:26:49;21.83;;;18.55;;
59458;SDS011;45269;43.568;22.244;2022-10-16T08:29:15;17.50;;;14.23;;
59458;SDS011;45269;43.568;22.244;2022-10-16T08:31:40;15.45;;;12.85;;
59458;SDS011;45269;43.568;22.244;2022-10-16T08:34:06;19.60;;;15.43;;
59458;SDS011;45269;43.568;22.244;2022-10-16T08:36:31;21.20;;;19.00;;
59458;SDS011;45269;43.568;22.244;2022-10-16T08:38:57;26.98;;;23.83;;
59458;SDS011;45269;43.568;22.244;2022-10-16T08:49:25;18.88;;;16.30;;
59458;SDS011;45269;43.568;22.244;2022-10-16T08:51:50;14.85;;;13.05;;
59458;SDS011;45269;43.568;22.244;2022-10-16T08:56:47;25.13;;;22.42;;
59458;SDS011;45269;43.568;22.244;2022-10-16T08:59:12;18.88;;;15.25;;
59458;SDS011;45269;43.568;22.244;2022-10-16T09:01:40;19.88;;;17.85;;
59458;SDS011;45269;43.568;22.244;2022-10-16T09:06:35;18.67;;;14.57;;
59458;SDS011;45269;43.568;22.244;2022-10-16T09:09:18;18.40;;;14.82;;
59458;SDS011;45269;43.568;22.244;2022-10-16T09:11:59;13.50;;;11.52;;
59458;SDS011;45269;43.568;22.244;2022-10-16T09:14:44;28.13;;;25.23;;
59458;SDS011;45269;43.568;22.244;2022-10-16T09:19:39;14.52;;;13.02;;
59458;SDS011;45269;43.568;22.244;2022-10-16T09:22:12;14.55;;;12.50;;
59458;SDS011;45269;43.568;22.244;2022-10-16T09:24:39;12.80;;;10.98;;
59458;SDS011;45269;43.568;22.244;2022-10-16T09:27:04;13.02;;;10.85;;
59458;SDS011;45269;43.568;22.244;2022-10-16T09:29:30;14.23;;;9.77;;
59458;SDS011;45269;43.568;22.244;2022-10-16T09:31:55;11.77;;;9.55;;
59458;SDS011;45269;43.568;22.244;2022-10-16T09:34:35;13.02;;;9.10;;
59458;SDS011;45269;43.568;22.244;2022-10-16T09:37:05;13.43;;;9.70;;
59458;SDS011;45269;43.568;22.244;2022-10-16T09:39:44;13.18;;;9.50;;
59458;SDS011;45269;43.568;22.244;2022-10-16T09:42:11;11.38;;;8.02;;
59458;SDS011;45269;43.568;22.244;2022-10-16T09:44:38;9.85;;;8.55;;
59458;SDS011;45269;43.568;22.244;2022-10-16T09:47:17;11.57;;;9.55;;
59458;SDS011;45269;43.568;22.244;2022-10-16T09:52:35;12.75;;;11.27;;
59458;SDS011;45269;43.568;22.244;2022-10-16T09:55:02;12.60;;;10.07;;
59458;SDS011;45269;43.568;22.244;2022-10-16T09:57:28;17.65;;;15.82;;
59458;SDS011;45269;43.568;22.244;2022-10-16T09:59:55;15.20;;;11.63;;
59458;SDS011;45269;43.568;22.244;2022-10-16T10:02:28;11.73;;;10.23;;
59458;SDS011;45269;43.568;22.244;2022-10-16T10:04:54;13.63;;;12.18;;
59458;SDS011;45269;43.568;22.244;2022-10-16T10:07:21;12.65;;;11.30;;
59458;SDS011;45269;43.568;22.244;2022-10-16T10:09:48;10.47;;;8.60;;
59458;SDS011;45269;43.568;22.244;2022-10-16T10:12:19;12.65;;;9.73;;
59458;SDS011;45269;43.568;22.244;2022-10-16T10:14:52;8.57;;;7.47;;
59458;SDS011;45269;43.568;22.244;2022-10-16T10:17:19;10.57;;;8.13;;
59458;SDS011;45269;43.568;22.244;2022-10-16T10:19:49;11.13;;;9.45;;
59458;SDS011;45269;43.568;22.244;2022-10-16T10:24:56;11.15;;;7.53;;
59458;SDS011;45269;43.568;22.244;2022-10-16T10:27:24;10.95;;;9.55;;
59458;SDS011;45269;43.568;22.244;2022-10-16T10:32:23;9.15;;;8.05;;
59458;SDS011;45269;43.568;22.244;2022-10-16T10:35:34;11.00;;;9.88;;
59458;SDS011;45269;43.568;22.244;2022-10-16T10:40:34;12.93;;;11.68;;
59458;SDS011;45269;43.568;22.244;2022-10-16T10:43:15;9.70;;;8.70;;
59458;SDS011;45269;43.568;22.244;2022-10-16T10:45:50;8.27;;;6.75;;
59458;SDS011;45269;43.568;22.244;2022-10-16T10:51:01;10.32;;;9.10;;
59458;SDS011;45269;43.568;22.244;2022-10-16T10:55:57;8.30;;;6.03;;
59458;SDS011;45269;43.568;22.244;2022-10-16T11:03:27;8.80;;;7.90;;
59458;SDS011;45269;43.568;22.244;2022-10-16T11:05:56;7.93;;;6.75;;
59458;SDS011;45269;43.568;22.244;2022-10-16T11:10:58;7.68;;;5.97;;
59458;SDS011;45269;43.568;22.244;2022-10-16T11:13:33;6.68;;;5.32;;
59458;SDS011;45269;43.568;22.244;2022-10-16T11:16:00;10.70;;;8.23;;
59458;SDS011;45269;43.568;22.244;2022-10-16T11:18:30;6.95;;;5.55;;
59458;SDS011;45269;43.568;22.244;2022-10-16T11:21:00;23.63;;;21.08;;
59458;SDS011;45269;43.568;22.244;2022-10-16T11:23:46;12.10;;;10.73;;
59458;SDS011;45269;43.568;22.244;2022-10-16T11:26:14;11.13;;;7.93;;
59458;SDS011;45269;43.568;22.244;2022-10-16T11:28:51;19.80;;;14.68;;
59458;SDS011;45269;43.568;22.244;2022-10-16T11:36:20;7.95;;;7.07;;
59458;SDS011;45269;43.568;22.244;2022-10-16T11:43:40;8.30;;;5.57;;
59458;SDS011;45269;43.568;22.244;2022-10-16T11:46:11;7.00;;;5.30;;
59458;SDS011;45269;43.568;22.244;2022-10-16T11:48:46;9.48;;;5.63;;
59458;SDS011;45269;43.568;22.244;2022-10-16T11:51:33;6.72;;;5.70;;
59458;SDS011;45269;43.568;22.244;2022-10-16T11:56:26;5.30;;;4.78;;
59458;SDS011;45269;43.568;22.244;2022-10-16T12:06:31;9.75;;;8.70;;
59458;SDS011;45269;43.568;22.244;2022-10-16T12:08:59;7.63;;;4.68;;
59458;SDS011;45269;43.568;22.244;2022-10-16T12:14:07;10.85;;;8.90;;
59458;SDS011;45269;43.568;22.244;2022-10-16T12:16:55;5.75;;;4.85;;
59458;SDS011;45269;43.568;22.244;2022-10-16T12:19:21;5.22;;;3.70;;
59458;SDS011;45269;43.568;22.244;2022-10-16T12:21:47;6.63;;;5.75;;
59458;SDS011;45269;43.568;22.244;2022-10-16T12:24:46;6.13;;;5.13;;
59458;SDS011;45269;43.568;22.244;2022-10-16T12:27:06;6.00;;;4.15;;
59458;SDS011;45269;43.568;22.244;2022-10-16T12:29:45;5.18;;;4.68;;
59458;SDS011;45269;43.568;22.244;2022-10-16T12:32:27;5.53;;;4.18;;
59458;SDS011;45269;43.568;22.244;2022-10-16T12:34:53;8.15;;;5.93;;
59458;SDS011;45269;43.568;22.244;2022-10-16T12:39:44;7.03;;;6.20;;
59458;SDS011;45269;43.568;22.244;2022-10-16T12:44:53;4.82;;;4.28;;
59458;SDS011;45269;43.568;22.244;2022-10-16T12:49:56;7.30;;;3.65;;
59458;SDS011;45269;43.568;22.244;2022-10-16T12:54:50;5.97;;;5.18;;
59458;SDS011;45269;43.568;22.244;2022-10-16T13:00:20;10.32;;;6.45;;
59458;SDS011;45269;43.568;22.244;2022-10-16T13:10:28;5.10;;;4.60;;
59458;SDS011;45269;43.568;22.244;2022-10-16T13:20:55;5.70;;;4.13;;
59458;SDS011;45269;43.568;22.244;2022-10-16T13:23:27;5.57;;;4.07;;
59458;SDS011;45269;43.568;22.244;2022-10-16T13:25:58;4.90;;;4.05;;
59458;SDS011;45269;43.568;22.244;2022-10-16T13:28:32;4.72;;;4.28;;
59458;SDS011;45269;43.568;22.244;2022-10-16T13:30:59;5.75;;;4.30;;
59458;SDS011;45269;43.568;22.244;2022-10-16T13:33:30;5.50;;;4.40;;
59458;SDS011;45269;43.568;22.244;2022-10-16T13:35:56;4.75;;;3.83;;
59458;SDS011;45269;43.568;22.244;2022-10-16T13:38:23;6.05;;;4.30;;
59458;SDS011;45269;43.568;22.244;2022-10-16T13:43:15;6.18;;;5.57;;
59458;SDS011;45269;43.568;22.244;2022-10-16T13:45:41;5.53;;;4.95;;
59458;SDS011;45269;43.568;22.244;2022-10-16T13:48:17;9.23;;;5.28;;
59458;SDS011;45269;43.568;22.244;2022-10-16T13:50:42;7.57;;;4.72;;
59458;SDS011;45269;43.568;22.244;2022-10-16T13:53:12;6.78;;;4.60;;
59458;SDS011;45269;43.568;22.244;2022-10-16T13:55:38;4.93;;;4.25;;
59458;SDS011;45269;43.568;22.244;2022-10-16T13:58:07;10.23;;;6.57;;
59458;SDS011;45269;43.568;22.244;2022-10-16T14:00:33;8.38;;;6.00;;
59458;SDS011;45269;43.568;22.244;2022-10-16T14:03:01;9.40;;;7.45;;
59458;SDS011;45269;43.568;22.244;2022-10-16T14:05:28;12.43;;;10.13;;
59458;SDS011;45269;43.568;22.244;2022-10-16T14:07:53;152.27;;;87.70;;
59458;SDS011;45269;43.568;22.244;2022-10-16T14:12:57;59.47;;;42.87;;
59458;SDS011;45269;43.568;22.244;2022-10-16T14:15:23;32.85;;;25.05;;
59458;SDS011;45269;43.568;22.244;2022-10-16T14:17:49;42.83;;;28.35;;
59458;SDS011;45269;43.568;22.244;2022-10-16T14:20:15;43.55;;;32.95;;
59458;SDS011;45269;43.568;22.244;2022-10-16T14:22:41;16.60;;;13.52;;
59458;SDS011;45269;43.568;22.244;2022-10-16T14:27:42;9.68;;;6.88;;
59458;SDS011;45269;43.568;22.244;2022-10-16T14:32:32;8.52;;;5.35;;
59458;SDS011;45269;43.568;22.244;2022-10-16T14:34:58;11.82;;;10.63;;
59458;SDS011;45269;43.568;22.244;2022-10-16T14:37:27;8.52;;;7.72;;
59458;SDS011;45269;43.568;22.244;2022-10-16T14:42:18;8.47;;;6.07;;
59458;SDS011;45269;43.568;22.244;2022-10-16T14:44:44;11.18;;;10.02;;
59458;SDS011;45269;43.568;22.244;2022-10-16T14:47:13;14.65;;;13.07;;
59458;SDS011;45269;43.568;22.244;2022-10-16T14:49:39;7.40;;;6.28;;
59458;SDS011;45269;43.568;22.244;2022-10-16T14:52:10;18.13;;;12.98;;
59458;SDS011;45269;43.568;22.244;2022-10-16T14:54:35;11.57;;;9.05;;
59458;SDS011;45269;43.568;22.244;2022-10-16T14:57:01;10.82;;;7.55;;
59458;SDS011;45269;43.568;22.244;2022-10-16T14:59:31;8.18;;;5.03;;
59458;SDS011;45269;43.568;22.244;2022-10-16T15:01:57;4.65;;;3.60;;
59458;SDS011;45269;43.568;22.244;2022-10-16T15:04:23;9.75;;;6.97;;
59458;SDS011;45269;43.568;22.244;2022-10-16T15:06:48;9.05;;;8.20;;
59458;SDS011;45269;43.568;22.244;2022-10-16T15:09:14;17.75;;;15.68;;
59458;SDS011;45269;43.568;22.244;2022-10-16T15:11:39;7.13;;;5.55;;
59458;SDS011;45269;43.568;22.244;2022-10-16T15:14:05;6.47;;;5.88;;
59458;SDS011;45269;43.568;22.244;2022-10-16T15:16:30;6.60;;;6.00;;
59458;SDS011;45269;43.568;22.244;2022-10-16T15:18:56;6.57;;;4.95;;
59458;SDS011;45269;43.568;22.244;2022-10-16T15:21:24;6.35;;;5.07;;
59458;SDS011;45269;43.568;22.244;2022-10-16T15:23:49;6.13;;;4.65;;
59458;SDS011;45269;43.568;22.244;2022-10-16T15:26:16;6.55;;;3.58;;
59458;SDS011;45269;43.568;22.244;2022-10-16T15:28:41;4.35;;;3.88;;
59458;SDS011;45269;43.568;22.244;2022-10-16T15:31:06;5.30;;;3.95;;
59458;SDS011;45269;43.568;22.244;2022-10-16T15:33:32;8.15;;;3.80;;
59458;SDS011;45269;43.568;22.244;2022-10-16T15:36:00;6.88;;;3.90;;
59458;SDS011;45269;43.568;22.244;2022-10-16T15:38:25;17.77;;;13.75;;
59458;SDS011;45269;43.568;22.244;2022-10-16T15:40:51;6.60;;;5.82;;
59458;SDS011;45269;43.568;22.244;2022-10-16T15:43:16;6.88;;;4.60;;
59458;SDS011;45269;43.568;22.244;2022-10-16T15:45:42;9.60;;;4.72;;
59458;SDS011;45269;43.568;22.244;2022-10-16T15:48:11;6.50;;;5.00;;
59458;SDS011;45269;43.568;22.244;2022-10-16T15:50:38;9.68;;;6.38;;
59458;SDS011;45269;43.568;22.244;2022-10-16T15:53:03;12.02;;;7.60;;
59458;SDS011;45269;43.568;22.244;2022-10-16T15:55:29;23.02;;;17.80;;
59458;SDS011;45269;43.568;22.244;2022-10-16T15:57:54;39.92;;;29.67;;
59458;SDS011;45269;43.568;22.244;2022-10-16T16:00:20;17.50;;;13.07;;
59458;SDS011;45269;43.568;22.244;2022-10-16T16:02:51;24.35;;;16.00;;
59458;SDS011;45269;43.568;22.244;2022-10-16T16:05:17;16.17;;;9.43;;
59458;SDS011;45269;43.568;22.244;2022-10-16T16:07:43;23.30;;;16.27;;
59458;SDS011;45269;43.568;22.244;2022-10-16T16:10:09;18.13;;;12.90;;
59458;SDS011;45269;43.568;22.244;2022-10-16T16:12:35;10.13;;;8.25;;
59458;SDS011;45269;43.568;22.244;2022-10-16T16:15:03;6.32;;;5.65;;
59458;SDS011;45269;43.568;22.244;2022-10-16T16:17:29;5.63;;;4.88;;
59458;SDS011;45269;43.568;22.244;2022-10-16T16:19:55;5.63;;;4.60;;